createdAt,value
2023-04-19T00:02:14.165Z,16.10
2023-04-19T00:04:59.969Z,16.00
2023-04-19T00:07:47.213Z,16.10
2023-04-19T00:10:33.072Z,16.00
2023-04-19T00:13:19.026Z,16.10
2023-04-19T00:16:05.867Z,16.10
2023-04-19T00:18:51.613Z,16.10
2023-04-19T00:21:37.506Z,16.10
2023-04-19T00:24:23.379Z,16.10
2023-04-19T00:27:08.886Z,16.10
2023-04-19T00:29:54.306Z,16.20
2023-04-19T00:32:40.736Z,16.20
2023-04-19T00:35:27.143Z,16.20
2023-04-19T00:38:13.464Z,16.20
2023-04-19T00:41:00.245Z,16.20
2023-04-19T00:43:46.234Z,16.20
2023-04-19T00:46:32.134Z,16.20
2023-04-19T00:49:20.857Z,16.20
2023-04-19T00:52:08.936Z,16.20
2023-04-19T00:54:58.131Z,16.20
2023-04-19T00:57:44.876Z,16.30
2023-04-19T01:00:31.657Z,16.30
2023-04-19T01:03:17.700Z,16.20
2023-04-19T01:06:03.681Z,16.20
2023-04-19T01:08:49.382Z,16.10
2023-04-19T01:11:34.972Z,16.10
2023-04-19T01:14:20.653Z,16.00
2023-04-19T01:17:08.635Z,16.00
2023-04-19T01:20:02.964Z,16.00
2023-04-19T01:22:50.062Z,15.90
2023-04-19T01:25:36.416Z,15.90
2023-04-19T01:28:22.870Z,15.90
2023-04-19T01:31:08.906Z,15.90
2023-04-19T01:33:55.871Z,15.90
2023-04-19T01:36:41.670Z,16.00
2023-04-19T01:39:27.563Z,16.00
2023-04-19T01:42:13.453Z,16.00
2023-04-19T01:44:59.333Z,16.00
2023-04-19T01:47:45.852Z,16.00
2023-04-19T01:50:32.373Z,16.00
2023-04-19T01:53:18.685Z,16.00
2023-04-19T01:56:04.485Z,16.00
2023-04-19T01:58:50.901Z,16.00
2023-04-19T02:01:36.727Z,16.00
2023-04-19T02:04:22.454Z,15.90
2023-04-19T02:07:08.509Z,15.90
2023-04-19T02:09:54.399Z,15.90
2023-04-19T02:12:42.409Z,16.00
2023-04-19T02:15:27.858Z,16.00
2023-04-19T02:18:13.933Z,16.10
2023-04-19T02:21:00.042Z,16.10
2023-04-19T02:23:46.040Z,16.10
2023-04-19T02:26:31.836Z,16.10
2023-04-19T02:29:17.122Z,16.10
2023-04-19T02:32:06.117Z,16.00
2023-04-19T02:34:52.041Z,16.00
2023-04-19T02:37:37.781Z,16.00
2023-04-19T02:40:23.840Z,16.00
2023-04-19T02:43:10.080Z,15.90
2023-04-19T02:45:55.684Z,15.90
2023-04-19T02:48:41.993Z,15.90
2023-04-19T02:51:27.896Z,15.90
2023-04-19T02:54:15.693Z,15.90
2023-04-19T02:57:03.556Z,16.00
2023-04-19T02:59:49.621Z,16.00
2023-04-19T03:02:35.560Z,16.00
2023-04-19T03:05:22.513Z,16.00
2023-04-19T03:08:11.172Z,16.00
2023-04-19T03:10:57.237Z,16.00
2023-04-19T03:13:43.181Z,16.00
2023-04-19T03:16:30.337Z,16.00
2023-04-19T03:19:16.905Z,16.00
2023-04-19T03:22:08.189Z,16.00
2023-04-19T03:24:54.048Z,15.90
2023-04-19T03:27:42.047Z,15.90
2023-04-19T03:30:31.482Z,15.80
2023-04-19T03:33:17.477Z,15.80
2023-04-19T03:36:03.717Z,15.80
2023-04-19T03:38:50.261Z,15.80
2023-04-19T03:41:37.917Z,15.80
2023-04-19T03:44:46.498Z,15.80
2023-04-19T03:47:34.019Z,15.80
2023-04-19T03:50:19.654Z,15.80
2023-04-19T03:53:09.342Z,15.80
2023-04-19T03:55:55.230Z,15.90
2023-04-19T03:58:42.806Z,15.90
2023-04-19T04:01:29.572Z,15.90
2023-04-19T04:04:16.599Z,15.90
2023-04-19T04:07:04.108Z,15.90
2023-04-19T04:09:50.693Z,15.90
2023-04-19T04:12:36.539Z,15.90
2023-04-19T04:15:24.184Z,15.90
2023-04-19T04:18:12.669Z,15.90
2023-04-19T04:20:59.044Z,15.90
2023-04-19T04:23:45.700Z,15.90
2023-04-19T04:26:39.564Z,15.90
2023-04-19T04:29:41.584Z,15.90
2023-04-19T04:32:28.046Z,16.00
2023-04-19T04:35:18.638Z,15.90
2023-04-19T04:38:23.521Z,16.00
2023-04-19T04:41:12.241Z,16.00
2023-04-19T04:46:50.987Z,16.10
2023-04-19T04:49:42.983Z,16.10
2023-04-19T04:52:29.417Z,16.10
2023-04-19T04:55:31.167Z,16.10
2023-04-19T04:58:18.532Z,16.20
2023-04-19T05:01:22.963Z,16.20
2023-04-19T05:04:09.136Z,16.10
2023-04-19T05:06:55.414Z,16.10
2023-04-19T05:09:44.593Z,16.10
2023-04-19T05:12:34.006Z,16.10
2023-04-19T05:15:19.918Z,16.20
2023-04-19T05:18:11.637Z,16.20
2023-04-19T05:20:57.957Z,16.20
2023-04-19T05:23:48.220Z,16.20
2023-04-19T05:26:34.492Z,16.20
2023-04-19T05:29:22.447Z,16.20
2023-04-19T05:32:11.748Z,16.20
2023-04-19T05:35:07.968Z,16.20
2023-04-19T05:37:54.071Z,16.10
2023-04-19T05:40:40.546Z,16.10
2023-04-19T05:43:26.286Z,16.10
2023-04-19T05:46:11.707Z,16.10
2023-04-19T05:48:57.672Z,16.00
2023-04-19T05:51:47.198Z,16.00
2023-04-19T05:54:53.332Z,16.00
2023-04-19T05:57:38.850Z,16.00
2023-04-19T06:00:25.628Z,15.90
2023-04-19T06:03:18.867Z,15.90
2023-04-19T06:06:05.429Z,16.00
2023-04-19T06:08:52.630Z,16.00
2023-04-19T06:11:49.942Z,16.00
2023-04-19T06:14:38.192Z,16.00
2023-04-19T06:17:25.543Z,16.00
2023-04-19T06:20:12.437Z,16.00
2023-04-19T06:22:58.366Z,16.00
2023-04-19T06:25:44.235Z,16.10
2023-04-19T06:28:30.652Z,16.10
2023-04-19T06:31:16.239Z,16.00
2023-04-19T06:34:02.516Z,16.00
2023-04-19T06:36:48.075Z,16.00
2023-04-19T06:39:33.812Z,16.00
2023-04-19T06:42:20.879Z,16.00
2023-04-19T06:45:08.277Z,16.00
2023-04-19T06:47:54.892Z,16.00
2023-04-19T06:50:41.375Z,16.00
2023-04-19T06:53:27.655Z,16.00
2023-04-19T06:56:14.011Z,16.00
2023-04-19T06:58:59.600Z,16.00
2023-04-19T07:01:45.984Z,16.00
2023-04-19T07:04:31.771Z,16.10
2023-04-19T07:07:18.135Z,16.10
2023-04-19T07:10:04.040Z,16.10
2023-04-19T07:12:50.493Z,16.10
2023-04-19T07:15:36.767Z,16.10
2023-04-19T07:18:22.405Z,16.10
2023-04-19T07:21:08.092Z,16.10
2023-04-19T07:23:54.092Z,16.20
2023-04-19T07:26:40.292Z,16.20
2023-04-19T07:29:26.618Z,16.20
2023-04-19T07:32:13.952Z,16.20
2023-04-19T07:34:59.946Z,16.20
2023-04-19T07:37:46.778Z,16.20
2023-04-19T07:40:32.233Z,16.20
2023-04-19T07:43:17.989Z,16.10
2023-04-19T07:46:14.780Z,16.10
2023-04-19T07:49:03.993Z,16.20
2023-04-19T07:51:50.117Z,16.20
2023-04-19T07:54:36.077Z,16.20
2023-04-19T07:57:21.596Z,16.30
2023-04-19T08:00:10.446Z,16.30
2023-04-19T08:03:03.862Z,16.20
2023-04-19T08:05:49.747Z,16.20
2023-04-19T08:08:37.414Z,16.10
2023-04-19T08:11:25.162Z,16.20
2023-04-19T08:14:28.149Z,16.20
2023-04-19T08:17:26.761Z,16.20
2023-04-19T08:20:15.009Z,16.30
2023-04-19T08:23:10.327Z,16.20
2023-04-19T08:26:04.515Z,16.20
2023-04-19T08:28:52.344Z,16.20
2023-04-19T08:31:38.244Z,16.30
2023-04-19T08:34:24.394Z,16.40
2023-04-19T08:37:10.834Z,16.50
2023-04-19T08:39:56.627Z,16.50
2023-04-19T08:42:42.474Z,16.60
2023-04-19T08:45:29.379Z,16.60
2023-04-19T08:48:17.932Z,16.60
2023-04-19T08:51:05.753Z,16.70
2023-04-19T08:53:53.133Z,16.70
2023-04-19T08:56:39.109Z,16.70
2023-04-19T08:59:24.709Z,16.70
2023-04-19T09:02:10.988Z,16.70
2023-04-19T09:04:56.680Z,16.70
2023-04-19T09:07:42.993Z,16.70
2023-04-19T09:10:28.707Z,16.60
2023-04-19T09:13:18.563Z,16.60
2023-04-19T09:16:08.147Z,16.70
2023-04-19T09:19:08.184Z,16.70
2023-04-19T09:21:57.569Z,16.80
2023-04-19T09:27:35.412Z,16.90
2023-04-19T09:30:32.381Z,17.00
2023-04-19T09:33:41.714Z,17.00
2023-04-19T09:36:33.583Z,17.00
2023-04-19T09:39:36.700Z,17.10
2023-04-19T09:42:42.196Z,17.10
2023-04-19T09:45:30.800Z,17.20
2023-04-19T10:08:28.597Z,17.40
2023-04-19T10:17:57.272Z,17.50
2023-04-19T10:21:11.363Z,17.60
2023-04-19T10:23:58.177Z,17.70
2023-04-19T10:27:03.215Z,17.70
2023-04-19T10:29:55.781Z,17.70
2023-04-19T10:32:44.653Z,17.80
2023-04-19T10:35:37.872Z,17.80
2023-04-19T10:38:39.261Z,17.80
2023-04-19T10:41:57.707Z,17.80
2023-04-19T10:45:21.725Z,17.90
2023-04-19T10:48:07.285Z,17.90
2023-04-19T10:51:14.598Z,17.90
2023-04-19T10:54:20.204Z,18.00
2023-04-19T10:57:08.325Z,18.00
2023-04-19T11:00:27.560Z,18.00
2023-04-19T11:03:44.708Z,18.00
2023-04-19T11:06:31.021Z,18.00
2023-04-19T11:09:38.885Z,18.00
2023-04-19T11:12:27.528Z,18.00
2023-04-19T11:15:13.121Z,18.10
2023-04-19T11:18:11.906Z,18.00
2023-04-19T11:20:58.909Z,18.10
2023-04-19T11:23:44.846Z,18.10
2023-04-19T11:26:31.523Z,18.10
2023-04-19T11:29:17.307Z,18.10
2023-04-19T11:32:03.014Z,18.10
2023-04-19T11:34:49.322Z,18.10
2023-04-19T11:37:36.946Z,18.10
2023-04-19T11:40:26.001Z,18.10
2023-04-19T11:43:11.893Z,18.10
2023-04-19T11:46:14.584Z,18.00
2023-04-19T11:49:02.161Z,18.00
2023-04-19T11:51:48.271Z,18.00
2023-04-19T11:54:34.470Z,18.00
2023-04-19T11:57:31.286Z,17.90
2023-04-19T12:00:27.432Z,17.90
2023-04-19T12:03:13.592Z,17.90
2023-04-19T12:06:04.163Z,17.80
2023-04-19T12:08:52.315Z,17.80
2023-04-19T12:11:46.507Z,17.80
2023-04-19T12:14:36.450Z,17.70
2023-04-19T12:17:22.911Z,17.70
2023-04-19T12:20:10.633Z,17.70
2023-04-19T12:22:56.976Z,17.60
2023-04-19T12:25:46.709Z,17.60
2023-04-19T12:28:32.371Z,17.60
2023-04-19T12:31:21.103Z,17.60
2023-04-19T12:34:09.480Z,17.60
2023-04-19T12:36:57.681Z,17.60
2023-04-19T12:45:05.441Z,17.50
2023-04-19T12:47:52.013Z,17.50
2023-04-19T12:50:38.970Z,17.60
2023-04-19T12:53:25.423Z,17.60
2023-04-19T12:56:16.158Z,17.60
2023-04-19T12:59:02.592Z,17.60
2023-04-19T13:01:48.409Z,17.60
2023-04-19T13:04:34.776Z,17.60
2023-04-19T13:07:20.864Z,17.50
2023-04-19T13:10:07.791Z,17.50
2023-04-19T13:12:53.296Z,17.50
2023-04-19T13:15:39.969Z,17.50
2023-04-19T13:18:26.125Z,17.40
2023-04-19T13:21:12.607Z,17.40
2023-04-19T13:24:01.678Z,17.40
2023-04-19T13:26:47.762Z,17.30
2023-04-19T13:29:34.237Z,17.40
2023-04-19T13:32:20.018Z,17.40
2023-04-19T13:35:06.168Z,17.40
2023-04-19T13:37:52.286Z,17.40
2023-04-19T13:40:37.714Z,17.40
2023-04-19T13:43:23.223Z,17.40
2023-04-19T13:46:08.923Z,17.30
2023-04-19T13:48:54.766Z,17.30
2023-04-19T13:51:49.740Z,17.30
2023-04-19T13:54:36.798Z,17.20
2023-04-19T13:57:22.700Z,17.20
2023-04-19T14:00:09.188Z,17.20
2023-04-19T14:02:57.102Z,17.10
2023-04-19T14:05:43.716Z,17.10
2023-04-19T14:08:29.820Z,17.00
2023-04-19T14:11:15.498Z,17.00
2023-04-19T14:14:01.497Z,16.90
2023-04-19T14:16:47.162Z,16.90
2023-04-19T14:19:32.866Z,16.80
2023-04-19T14:22:18.787Z,16.80
2023-04-19T14:25:04.923Z,16.80
2023-04-19T14:27:50.652Z,16.80
2023-04-19T14:30:36.230Z,16.80
2023-04-19T14:33:22.266Z,16.80
2023-04-19T14:36:08.751Z,16.70
2023-04-19T14:38:54.205Z,16.70
2023-04-19T14:41:39.917Z,16.70
2023-04-19T14:44:26.003Z,16.70
2023-04-19T14:47:11.847Z,16.60
2023-04-19T14:49:57.874Z,16.60
2023-04-19T14:52:43.795Z,16.60
2023-04-19T14:55:30.559Z,16.60
2023-04-19T14:58:16.511Z,16.50
2023-04-19T15:01:14.459Z,16.50
2023-04-19T15:04:00.918Z,16.50
2023-04-19T15:06:47.710Z,16.50
2023-04-19T15:09:33.398Z,16.40
2023-04-19T15:12:19.951Z,16.40
2023-04-19T15:15:07.114Z,16.40
2023-04-19T15:17:53.166Z,16.40
2023-04-19T15:20:39.320Z,16.40
2023-04-19T15:23:25.926Z,16.40
2023-04-19T15:31:05.984Z,16.30
2023-04-19T15:33:52.245Z,16.30
2023-04-19T15:36:38.360Z,16.30
2023-04-19T15:39:24.500Z,16.30
2023-04-19T15:42:10.653Z,16.30
2023-04-19T15:44:57.221Z,16.40
2023-04-19T15:47:42.682Z,16.40
2023-04-19T15:50:28.623Z,16.40
2023-04-19T15:53:14.495Z,16.40
2023-04-19T15:56:00.648Z,16.30
2023-04-19T15:58:46.956Z,16.30
2023-04-19T16:01:32.512Z,16.30
2023-04-19T16:04:19.101Z,16.30
2023-04-19T16:07:05.018Z,16.30
2023-04-19T16:09:51.407Z,16.30
2023-04-19T16:12:37.095Z,16.20
2023-04-19T16:15:22.677Z,16.10
2023-04-19T16:18:09.090Z,16.20
2023-04-19T16:20:55.205Z,16.20
2023-04-19T16:23:41.037Z,16.10
2023-04-19T16:26:27.275Z,16.10
2023-04-19T16:29:13.414Z,16.10
2023-04-19T16:32:00.256Z,16.20
2023-04-19T16:34:46.629Z,16.20
2023-04-19T16:37:33.144Z,16.20
2023-04-19T16:40:21.132Z,16.20
2023-04-19T16:43:07.134Z,16.30
2023-04-19T16:45:53.060Z,16.30
2023-04-19T16:48:40.240Z,16.30
2023-04-19T16:51:26.937Z,16.30
2023-04-19T16:54:14.193Z,16.20
2023-04-19T16:56:59.764Z,16.20
2023-04-19T16:59:45.836Z,16.20
2023-04-19T17:02:32.820Z,16.10
2023-04-19T17:05:19.121Z,16.10
2023-04-19T17:08:05.358Z,16.10
2023-04-19T17:10:50.841Z,16.10
2023-04-19T17:13:37.709Z,16.00
2023-04-19T17:16:23.550Z,15.90
2023-04-19T17:19:09.923Z,16.00
2023-04-19T17:21:56.784Z,15.90
2023-04-19T17:24:43.331Z,15.90
2023-04-19T17:27:28.907Z,15.90
2023-04-19T17:30:15.030Z,15.90
2023-04-19T17:33:01.406Z,15.80
2023-04-19T17:35:50.117Z,15.90
2023-04-19T17:38:35.593Z,15.90
2023-04-19T17:41:22.243Z,15.90
2023-04-19T17:44:08.008Z,15.80
2023-04-19T17:46:54.428Z,15.80
2023-04-19T17:49:41.273Z,15.80
2023-04-19T17:52:27.240Z,15.80
2023-04-19T17:55:14.394Z,15.80
2023-04-19T17:58:00.838Z,15.80
2023-04-19T18:00:47.243Z,15.80
2023-04-19T18:03:33.454Z,15.70
2023-04-19T18:06:20.910Z,15.70
2023-04-19T18:09:08.117Z,15.70
2023-04-19T18:11:55.482Z,15.70
2023-04-19T18:14:44.759Z,15.60
2023-04-19T18:17:30.884Z,15.60
2023-04-19T18:20:19.121Z,15.70
2023-04-19T18:23:05.173Z,15.70
2023-04-19T18:25:55.194Z,15.70
2023-04-19T18:28:41.395Z,15.70
2023-04-19T18:31:27.285Z,15.70
2023-04-19T18:34:13.739Z,15.70
2023-04-19T18:37:02.161Z,15.70
2023-04-19T18:39:48.072Z,15.70
2023-04-19T18:42:33.690Z,15.70
2023-04-19T18:45:20.063Z,15.70
2023-04-19T18:48:06.390Z,15.70
2023-04-19T18:50:52.191Z,15.70
2023-04-19T18:53:38.524Z,15.70
2023-04-19T18:56:56.105Z,15.70
2023-04-19T18:59:30.180Z,15.70
2023-04-19T19:02:16.401Z,15.70
2023-04-19T19:05:03.302Z,15.60
2023-04-19T19:07:49.559Z,15.60
2023-04-19T19:13:25.409Z,15.60
2023-04-19T19:16:11.376Z,15.60
2023-04-19T19:18:57.672Z,15.60
2023-04-19T19:21:43.264Z,15.60
2023-04-19T19:24:29.253Z,15.60
2023-04-19T19:27:16.895Z,15.50
2023-04-19T19:30:03.827Z,15.50
2023-04-19T19:32:49.414Z,15.50
2023-04-19T19:35:35.493Z,15.50
2023-04-19T19:38:21.950Z,15.50
2023-04-19T19:41:49.500Z,15.50
2023-04-19T19:44:15.199Z,15.50
2023-04-19T19:47:01.810Z,15.40
2023-04-19T19:50:20.278Z,15.40
2023-04-19T19:52:53.630Z,15.40
2023-04-19T19:55:39.514Z,15.40
2023-04-19T19:58:46.390Z,15.40
2023-04-19T20:01:32.173Z,15.30
2023-04-19T20:04:18.133Z,15.20
2023-04-19T20:09:53.942Z,14.90
2023-04-19T20:12:43.982Z,14.80
2023-04-19T20:15:30.272Z,14.70
2023-04-19T20:18:16.991Z,14.70
2023-04-19T20:21:03.210Z,14.60
2023-04-19T20:23:49.209Z,14.60
2023-04-19T20:26:34.995Z,14.50
2023-04-19T20:29:20.964Z,14.50
2023-04-19T20:32:08.620Z,14.50
2023-04-19T20:34:54.950Z,14.50
2023-04-19T20:37:40.883Z,14.50
2023-04-19T20:40:26.783Z,14.40
2023-04-19T20:43:12.943Z,14.40
2023-04-19T20:46:00.239Z,14.40
2023-04-19T20:48:46.049Z,14.40
2023-04-19T20:51:32.228Z,14.50
2023-04-19T20:54:18.921Z,14.50
2023-04-19T20:57:05.041Z,14.50
2023-04-19T20:59:51.461Z,14.50
2023-04-19T21:02:37.574Z,14.50
2023-04-19T21:05:23.817Z,14.40
2023-04-19T21:08:09.550Z,14.30
2023-04-19T21:10:55.461Z,14.30
2023-04-19T21:13:41.284Z,14.30
2023-04-19T21:16:27.043Z,14.40
2023-04-19T21:19:13.254Z,14.40
2023-04-19T21:21:59.314Z,14.40
2023-04-19T21:24:45.290Z,14.50
2023-04-19T21:27:34.125Z,14.50
2023-04-19T21:30:22.574Z,14.60
2023-04-19T21:33:10.279Z,14.60
2023-04-19T21:35:56.511Z,14.60
2023-04-19T21:38:44.652Z,14.70
2023-04-19T21:41:30.811Z,14.60
2023-04-19T21:44:16.632Z,14.70
2023-04-19T21:47:02.886Z,14.60
2023-04-19T21:49:51.294Z,14.60
2023-04-19T21:52:37.417Z,14.60
2023-04-19T21:55:23.175Z,14.60
2023-04-19T21:58:09.223Z,14.60
2023-04-19T22:00:55.085Z,14.60
2023-04-19T22:03:41.760Z,14.60
2023-04-19T22:06:27.844Z,14.60
2023-04-19T22:09:15.420Z,14.50
2023-04-19T22:12:01.763Z,14.50
2023-04-19T22:14:47.574Z,14.40
2023-04-19T22:17:33.779Z,14.40
2023-04-19T22:20:19.887Z,14.40
2023-04-19T22:23:06.653Z,14.40
2023-04-19T22:25:52.762Z,14.40
2023-04-19T22:28:39.083Z,14.40
2023-04-19T22:31:26.080Z,14.40
2023-04-19T22:34:11.944Z,14.40
2023-04-19T22:36:57.841Z,14.40
2023-04-19T22:39:43.789Z,14.40
2023-04-19T22:42:29.497Z,14.40
2023-04-19T22:45:16.960Z,14.40
2023-04-19T22:48:03.350Z,14.40
2023-04-19T22:50:50.729Z,14.40
2023-04-19T22:53:37.768Z,14.40
2023-04-19T22:56:23.436Z,14.40
2023-04-19T22:59:09.192Z,14.30
2023-04-19T23:01:54.938Z,14.30
2023-04-19T23:04:41.587Z,14.30
2023-04-19T23:07:28.785Z,14.20
2023-04-19T23:10:14.965Z,14.30
2023-04-19T23:13:01.110Z,14.20
2023-04-19T23:15:48.408Z,14.20
2023-04-19T23:18:35.353Z,14.20
2023-04-19T23:21:21.395Z,14.10
2023-04-19T23:24:07.532Z,14.10
2023-04-19T23:26:53.688Z,14.10
2023-04-19T23:29:39.537Z,14.10
2023-04-19T23:32:26.389Z,14.10
2023-04-19T23:35:12.227Z,14.10
2023-04-19T23:37:58.017Z,14.10
2023-04-19T23:40:43.713Z,14.00
2023-04-19T23:43:29.782Z,14.00
2023-04-19T23:46:15.711Z,14.00
2023-04-19T23:49:01.703Z,14.00
2023-04-19T23:51:48.996Z,13.90
2023-04-19T23:54:34.906Z,13.90
2023-04-19T23:57:21.104Z,13.90
